createdAt,value
2018-07-06T04:11:12.523Z,1011.9
2018-07-06T04:11:38.049Z,1011.94
2018-07-06T04:12:03.493Z,1011.94
2018-07-06T04:12:29.018Z,1011.9
2018-07-06T04:12:54.486Z,1011.91
2018-07-06T04:13:19.946Z,1011.95
2018-07-06T04:13:45.435Z,1011.95
2018-07-06T04:14:10.893Z,1011.95
2018-07-06T04:14:36.390Z,1011.93
2018-07-06T04:15:01.904Z,1011.95
2018-07-06T04:15:27.385Z,1011.95
2018-07-06T04:15:52.864Z,1011.95
2018-07-06T04:16:18.374Z,1011.97
2018-07-06T04:16:43.873Z,1011.97
2018-07-06T04:17:09.335Z,1011.96
2018-07-06T04:17:34.860Z,1011.96
2018-07-06T04:18:00.413Z,1011.98
2018-07-06T04:18:25.865Z,1011.98
2018-07-06T04:18:51.317Z,1011.99
2018-07-06T04:19:16.810Z,1011.98
2018-07-06T04:19:42.297Z,1011.99
2018-07-06T04:20:07.771Z,1012
2018-07-06T04:20:33.232Z,1012
2018-07-06T04:20:58.662Z,1012.01
2018-07-06T04:21:24.198Z,1012
2018-07-06T04:21:49.648Z,1012.04
2018-07-06T04:22:15.080Z,1012.04
2018-07-06T04:22:40.576Z,1012.03
2018-07-06T04:23:06.052Z,1012.01
2018-07-06T04:23:31.495Z,1012.03
2018-07-06T04:23:56.970Z,1012.01
2018-07-06T04:24:22.493Z,1012.04
2018-07-06T04:24:47.967Z,1012.01
2018-07-06T04:25:13.426Z,1012.07
2018-07-06T04:25:38.907Z,1011.99
2018-07-06T04:26:04.403Z,1012.04
2018-07-06T04:26:29.893Z,1012.02
2018-07-06T04:26:55.398Z,1012.04
2018-07-06T04:27:20.855Z,1012.04
2018-07-06T04:27:46.366Z,1012.02
2018-07-06T04:28:11.912Z,1012.01
2018-07-06T04:28:37.430Z,1012.03
2018-07-06T04:29:02.843Z,1012
2018-07-06T04:29:28.350Z,1012.03
2018-07-06T04:29:53.845Z,1012.05
2018-07-06T04:30:19.313Z,1012.04
2018-07-06T04:30:44.822Z,1012.05
2018-07-06T04:31:10.300Z,1012.05
2018-07-06T04:31:35.791Z,1012.03
2018-07-06T04:32:01.242Z,1012.04
2018-07-06T04:32:26.715Z,1012.03
2018-07-06T04:32:52.227Z,1012.07
2018-07-06T04:33:17.638Z,1012.07
2018-07-06T04:33:43.117Z,1012.07
2018-07-06T04:34:08.631Z,1012.05
2018-07-06T04:34:34.074Z,1012.07
2018-07-06T04:34:59.516Z,1012.08
2018-07-06T04:35:25.018Z,1012.07
2018-07-06T04:35:50.471Z,1012.1
2018-07-06T04:36:15.998Z,1012.1
2018-07-06T04:36:41.509Z,1012.11
2018-07-06T04:37:07.026Z,1012.08
2018-07-06T04:37:32.524Z,1012.09
2018-07-06T04:37:57.971Z,1012.09
2018-07-06T04:38:23.464Z,1012.08
2018-07-06T04:38:48.938Z,1012.07
2018-07-06T04:39:14.434Z,1012.08
2018-07-06T04:39:39.981Z,1012.11
2018-07-06T04:40:53.787Z,1012.11
2018-07-06T04:41:19.270Z,1012.12
2018-07-06T04:41:44.724Z,1012.09
2018-07-06T04:42:10.283Z,1012.1
2018-07-06T04:42:35.716Z,1012.16
2018-07-06T04:43:01.259Z,1012.12
2018-07-06T04:43:26.795Z,1012.14
2018-07-06T04:43:52.204Z,1012.16
2018-07-06T04:44:17.787Z,1012.17
2018-07-06T04:44:43.173Z,1012.13
2018-07-06T04:45:08.701Z,1012.16
2018-07-06T04:45:34.140Z,1012.14
2018-07-06T04:45:59.589Z,1012.14
2018-07-06T04:46:25.076Z,1012.15
2018-07-06T04:46:50.563Z,1012.17
2018-07-06T04:47:16.060Z,1012.19
2018-07-06T04:47:41.623Z,1012.16
2018-07-06T04:48:07.079Z,1012.16
2018-07-06T04:48:32.623Z,1012.15
2018-07-06T04:48:58.261Z,1012.2
2018-07-06T04:49:23.823Z,1012.15
2018-07-06T04:49:49.294Z,1012.2
2018-07-06T04:50:14.764Z,1012.2
2018-07-06T04:50:40.264Z,1012.19
2018-07-06T04:51:05.759Z,1012.17
2018-07-06T04:51:31.211Z,1012.18
2018-07-06T04:51:56.709Z,1012.16
2018-07-06T04:52:22.191Z,1012.18
2018-07-06T04:52:47.719Z,1012.17
2018-07-06T04:53:13.269Z,1012.16
2018-07-06T04:53:38.754Z,1012.19
2018-07-06T04:54:04.212Z,1012.15
2018-07-06T04:54:29.708Z,1012.19
2018-07-06T04:54:55.195Z,1012.21
2018-07-06T04:55:20.679Z,1012.19
2018-07-06T04:55:46.124Z,1012.19
2018-07-06T04:56:11.585Z,1012.17
2018-07-06T04:56:37.042Z,1012.21
2018-07-06T04:57:02.502Z,1012.23
2018-07-06T04:57:27.994Z,1012.2
2018-07-06T04:57:53.474Z,1012.2
2018-07-06T04:58:18.970Z,1012.24
2018-07-06T04:58:44.414Z,1012.24
2018-07-06T04:59:09.974Z,1012.25
2018-07-06T04:59:35.401Z,1012.22
2018-07-06T05:00:00.891Z,1012.21
2018-07-06T05:00:26.357Z,1012.25
2018-07-06T05:00:51.791Z,1012.22
2018-07-06T05:01:17.261Z,1012.26
2018-07-06T05:01:42.762Z,1012.23
2018-07-06T05:02:08.204Z,1012.22
2018-07-06T05:02:33.711Z,1012.24
2018-07-06T05:02:59.221Z,1012.27
2018-07-06T05:03:24.692Z,1012.23
2018-07-06T05:03:50.188Z,1012.22
2018-07-06T05:04:15.669Z,1012.26
2018-07-06T05:04:41.162Z,1012.25
2018-07-06T05:05:06.625Z,1012.26
2018-07-06T05:05:32.049Z,1012.26
2018-07-06T05:05:57.549Z,1012.26
2018-07-06T05:06:23.023Z,1012.28
2018-07-06T05:06:48.533Z,1012.27
2018-07-06T05:07:13.986Z,1012.29
2018-07-06T05:07:39.557Z,1012.25
2018-07-06T05:08:04.958Z,1012.28
2018-07-06T05:08:30.458Z,1012.22
2018-07-06T05:08:55.922Z,1012.26
2018-07-06T05:09:21.424Z,1012.28
2018-07-06T05:09:46.871Z,1012.31
2018-07-06T05:10:12.400Z,1012.26
2018-07-06T05:10:37.812Z,1012.28
2018-07-06T05:11:03.305Z,1012.29
2018-07-06T05:11:28.763Z,1012.28
2018-07-06T05:11:54.212Z,1012.28
2018-07-06T05:12:19.714Z,1012.31
2018-07-06T05:12:45.182Z,1012.32
2018-07-06T05:13:10.644Z,1012.33
2018-07-06T05:13:36.181Z,1012.28
2018-07-06T05:14:01.645Z,1012.33
2018-07-06T05:14:27.119Z,1012.33
2018-07-06T05:14:52.592Z,1012.35
2018-07-06T05:15:18.093Z,1012.36
2018-07-06T05:15:43.533Z,1012.33
2018-07-06T05:16:08.992Z,1012.33
2018-07-06T05:16:34.467Z,1012.37
2018-07-06T05:17:00.020Z,1012.41
2018-07-06T05:17:25.464Z,1012.36
2018-07-06T05:17:50.901Z,1012.38
2018-07-06T05:18:16.396Z,1012.32
2018-07-06T05:18:41.860Z,1012.34
2018-07-06T05:19:07.368Z,1012.37
2018-07-06T05:19:32.839Z,1012.37
2018-07-06T05:19:58.353Z,1012.38
2018-07-06T05:20:23.841Z,1012.34
2018-07-06T05:20:49.254Z,1012.35
2018-07-06T05:21:14.734Z,1012.36
2018-07-06T05:21:40.236Z,1012.32
2018-07-06T05:22:05.716Z,1012.34
2018-07-06T05:22:31.277Z,1012.37
2018-07-06T05:22:56.721Z,1012.38
2018-07-06T05:23:22.130Z,1012.34
2018-07-06T05:23:47.611Z,1012.38
2018-07-06T05:24:13.099Z,1012.4
2018-07-06T05:24:38.593Z,1012.39
2018-07-06T05:25:04.055Z,1012.43
2018-07-06T05:25:29.506Z,1012.4
2018-07-06T05:25:55.008Z,1012.42
2018-07-06T05:26:20.505Z,1012.41
2018-07-06T05:26:45.933Z,1012.35
2018-07-06T05:27:11.444Z,1012.38
2018-07-06T05:27:36.916Z,1012.37
2018-07-06T05:28:02.405Z,1012.37
2018-07-06T05:28:27.873Z,1012.35
2018-07-06T05:28:53.304Z,1012.36
2018-07-06T05:29:18.802Z,1012.4
2018-07-06T05:29:44.272Z,1012.37
2018-07-06T05:30:09.730Z,1012.39
2018-07-06T05:30:35.233Z,1012.39
2018-07-06T05:31:00.703Z,1012.4
2018-07-06T05:31:26.173Z,1012.4
2018-07-06T05:31:51.638Z,1012.39
2018-07-06T05:32:17.125Z,1012.38
2018-07-06T05:32:42.553Z,1012.39
2018-07-06T05:33:08.066Z,1012.39
2018-07-06T05:33:33.534Z,1012.37
2018-07-06T05:33:58.973Z,1012.44
2018-07-06T05:34:24.477Z,1012.4
2018-07-06T05:34:49.971Z,1012.42
2018-07-06T05:35:15.419Z,1012.43
2018-07-06T05:35:40.880Z,1012.4
2018-07-06T05:36:06.331Z,1012.4
2018-07-06T05:36:31.852Z,1012.45
2018-07-06T05:36:57.261Z,1012.4
2018-07-06T05:37:22.750Z,1012.41
2018-07-06T05:37:48.329Z,1012.41
2018-07-06T05:38:13.742Z,1012.41
2018-07-06T05:38:39.238Z,1012.41
2018-07-06T05:39:04.724Z,1012.38
2018-07-06T05:39:30.215Z,1012.42
2018-07-06T05:39:55.739Z,1012.44
2018-07-06T05:40:21.178Z,1012.43
2018-07-06T05:40:46.656Z,1012.44
2018-07-06T05:41:12.130Z,1012.47
2018-07-06T05:41:37.613Z,1012.42
2018-07-06T05:42:03.011Z,1012.47
2018-07-06T05:42:28.500Z,1012.48
2018-07-06T05:42:53.961Z,1012.45
2018-07-06T05:43:19.464Z,1012.44
2018-07-06T05:43:44.952Z,1012.42
2018-07-06T05:44:10.490Z,1012.43
2018-07-06T05:44:36.007Z,1012.48
2018-07-06T05:45:01.427Z,1012.43
2018-07-06T05:45:26.897Z,1012.45
2018-07-06T05:45:52.375Z,1012.45
2018-07-06T05:46:17.889Z,1012.45
2018-07-06T05:46:43.346Z,1012.46
2018-07-06T05:47:08.873Z,1012.49
2018-07-06T05:47:34.412Z,1012.5
2018-07-06T05:47:59.905Z,1012.54
2018-07-06T05:48:25.379Z,1012.5
2018-07-06T05:48:50.879Z,1012.53
2018-07-06T05:49:16.380Z,1012.53
2018-07-06T05:49:41.894Z,1012.53
2018-07-06T05:50:07.389Z,1012.54
2018-07-06T05:50:32.858Z,1012.55
2018-07-06T05:50:58.365Z,1012.56
2018-07-06T05:51:23.858Z,1012.56
2018-07-06T05:51:49.344Z,1012.6
2018-07-06T05:52:14.822Z,1012.59
2018-07-06T05:52:40.308Z,1012.57
2018-07-06T05:53:05.794Z,1012.6
2018-07-06T05:53:31.294Z,1012.58
2018-07-06T05:53:56.792Z,1012.6
2018-07-06T05:54:22.271Z,1012.57
2018-07-06T05:55:20.827Z,1012.58
2018-07-06T05:55:46.325Z,1012.63
2018-07-06T05:56:11.853Z,1012.6
2018-07-06T05:56:37.366Z,1012.59
2018-07-06T05:57:02.883Z,1012.64
2018-07-06T05:57:28.354Z,1012.63
2018-07-06T05:57:53.829Z,1012.6
2018-07-06T05:58:19.348Z,1012.61
2018-07-06T05:58:45.234Z,1012.56
2018-07-06T05:59:10.885Z,1012.66
2018-07-06T05:59:36.467Z,1012.58
2018-07-06T06:00:01.981Z,1012.59
2018-07-06T06:00:27.451Z,1012.6
2018-07-06T06:00:52.950Z,1012.58
2018-07-06T06:01:18.444Z,1012.6
2018-07-06T06:01:43.946Z,1012.57
2018-07-06T06:02:09.439Z,1012.6
2018-07-06T06:02:34.974Z,1012.58
2018-07-06T06:03:00.440Z,1012.59
2018-07-06T06:03:25.934Z,1012.58
2018-07-06T06:03:51.410Z,1012.61
2018-07-06T06:04:55.047Z,1012.62
2018-07-06T06:05:20.553Z,1012.61
2018-07-06T06:05:46.050Z,1012.61
2018-07-06T06:06:11.550Z,1012.61
2018-07-06T06:06:37.015Z,1012.61
2018-07-06T06:07:02.531Z,1012.58
2018-07-06T06:07:28.012Z,1012.63
2018-07-06T06:07:53.498Z,1012.59
2018-07-06T06:08:18.970Z,1012.58
2018-07-06T06:08:44.568Z,1012.6
2018-07-06T06:09:10.005Z,1012.64
2018-07-06T06:10:13.607Z,1012.59
2018-07-06T06:10:39.089Z,1012.57
2018-07-06T06:11:04.581Z,1012.56
2018-07-06T06:11:30.100Z,1012.61
2018-07-06T06:11:55.568Z,1012.57
2018-07-06T06:12:21.057Z,1012.54
2018-07-06T06:12:46.580Z,1012.54
2018-07-06T06:13:12.103Z,1012.54
2018-07-06T06:13:37.611Z,1012.56
2018-07-06T06:14:03.112Z,1012.55
2018-07-06T06:14:28.650Z,1012.58
2018-07-06T06:14:54.167Z,1012.57
2018-07-06T06:15:19.605Z,1012.57
2018-07-06T06:15:45.139Z,1012.57
2018-07-06T06:16:10.601Z,1012.54
2018-07-06T06:16:36.095Z,1012.59
2018-07-06T06:17:01.558Z,1012.56
2018-07-06T06:17:27.049Z,1012.58
2018-07-06T06:17:52.583Z,1012.56
2018-07-06T06:18:18.080Z,1012.6
2018-07-06T06:18:43.624Z,1012.57
2018-07-06T06:19:09.046Z,1012.59
2018-07-06T06:19:34.563Z,1012.62
2018-07-06T06:20:00.052Z,1012.59
2018-07-06T06:20:25.593Z,1012.62
2018-07-06T06:20:51.080Z,1012.65
2018-07-06T06:21:16.589Z,1012.66
2018-07-06T06:21:42.079Z,1012.63
2018-07-06T06:22:50.788Z,1012.68
2018-07-06T06:23:16.265Z,1012.64
2018-07-06T06:23:41.776Z,1012.66
2018-07-06T06:24:07.276Z,1012.6
2018-07-06T06:24:32.759Z,1012.61
2018-07-06T06:24:58.534Z,1012.63
2018-07-06T06:25:23.998Z,1012.65
2018-07-06T06:25:49.481Z,1012.63
2018-07-06T06:26:14.977Z,1012.64
2018-07-06T06:26:40.458Z,1012.65
2018-07-06T06:27:06.053Z,1012.66
2018-07-06T06:27:31.671Z,1012.61
2018-07-06T06:27:57.152Z,1012.64
2018-07-06T06:28:22.613Z,1012.65
2018-07-06T06:28:48.114Z,1012.65
2018-07-06T06:29:13.596Z,1012.65
2018-07-06T06:29:39.080Z,1012.67
2018-07-06T06:30:04.504Z,1012.71
2018-07-06T06:30:30.012Z,1012.7
2018-07-06T06:30:55.448Z,1012.7
2018-07-06T06:31:20.911Z,1012.73
2018-07-06T06:31:46.383Z,1012.71
2018-07-06T06:32:11.876Z,1012.72
2018-07-06T06:32:37.378Z,1012.74
2018-07-06T06:33:02.898Z,1012.71
2018-07-06T06:33:28.459Z,1012.72
2018-07-06T06:33:53.832Z,1012.76
2018-07-06T06:34:19.260Z,1012.74
2018-07-06T06:34:44.743Z,1012.74
2018-07-06T06:35:10.218Z,1012.75
2018-07-06T06:35:35.658Z,1012.8
2018-07-06T06:36:01.175Z,1012.79
2018-07-06T06:36:26.603Z,1012.83
2018-07-06T06:36:52.081Z,1012.77
2018-07-06T06:37:17.599Z,1012.8
2018-07-06T06:37:43.056Z,1012.8
2018-07-06T06:38:08.554Z,1012.79
2018-07-06T06:38:34.021Z,1012.82
2018-07-06T06:38:59.469Z,1012.84
2018-07-06T06:39:25.004Z,1012.82
2018-07-06T06:39:50.426Z,1012.85
2018-07-06T06:40:15.934Z,1012.84
2018-07-06T06:40:41.401Z,1012.81
2018-07-06T06:41:06.854Z,1012.81
2018-07-06T06:41:32.330Z,1012.85
2018-07-06T06:41:57.799Z,1012.82
2018-07-06T06:42:23.259Z,1012.81
2018-07-06T06:42:48.725Z,1012.85
2018-07-06T06:44:02.517Z,1012.86
2018-07-06T06:44:28.002Z,1012.9
2018-07-06T06:44:53.492Z,1012.89
2018-07-06T06:45:18.957Z,1012.88
2018-07-06T06:45:44.474Z,1012.86
2018-07-06T06:46:09.973Z,1012.88
2018-07-06T06:46:35.467Z,1012.89
2018-07-06T06:47:00.964Z,1012.87
2018-07-06T06:47:26.423Z,1012.86
2018-07-06T06:47:51.909Z,1012.88
2018-07-06T06:48:17.429Z,1012.85
2018-07-06T06:48:42.858Z,1012.87
2018-07-06T06:49:08.334Z,1012.88
2018-07-06T06:49:33.798Z,1012.88
2018-07-06T06:49:59.274Z,1012.94
2018-07-06T06:50:24.764Z,1012.92
2018-07-06T06:50:50.233Z,1012.92
2018-07-06T06:51:15.701Z,1012.92
2018-07-06T06:51:41.153Z,1012.94
2018-07-06T06:52:06.606Z,1012.92
2018-07-06T06:52:32.098Z,1012.92
2018-07-06T06:52:57.558Z,1012.94
2018-07-06T06:53:23.015Z,1012.96
2018-07-06T06:53:48.508Z,1012.96
2018-07-06T06:54:13.981Z,1012.97
2018-07-06T06:54:39.431Z,1012.95
2018-07-06T06:55:04.887Z,1012.96
2018-07-06T06:55:30.371Z,1012.97
2018-07-06T06:55:55.839Z,1012.97
2018-07-06T06:56:21.290Z,1012.98
2018-07-06T06:56:46.727Z,1013
2018-07-06T06:57:12.223Z,1013
2018-07-06T06:57:37.682Z,1013.01
2018-07-06T06:58:03.150Z,1013.04
2018-07-06T06:58:28.658Z,1013
2018-07-06T06:58:54.095Z,1013.05
2018-07-06T06:59:19.563Z,1013.01
2018-07-06T06:59:45.047Z,1013.02
2018-07-06T07:00:10.452Z,1013.06
2018-07-06T07:00:35.945Z,1013.04
2018-07-06T07:01:01.513Z,1013.02
2018-07-06T07:01:26.940Z,1013.02
2018-07-06T07:01:52.388Z,1013.02
2018-07-06T07:02:18.065Z,1013.03
2018-07-06T07:02:43.402Z,1013.01
2018-07-06T07:03:08.890Z,1013.04
2018-07-06T07:03:34.334Z,1013.05
2018-07-06T07:03:59.842Z,1013.05
2018-07-06T07:04:25.299Z,1013.06
2018-07-06T07:04:50.845Z,1013.06
2018-07-06T07:05:16.344Z,1013.06
2018-07-06T07:05:41.840Z,1013.03
2018-07-06T07:06:07.319Z,1013.06
2018-07-06T07:06:32.783Z,1013.02
2018-07-06T07:06:58.460Z,1013.05
2018-07-06T07:07:23.901Z,1013.07
2018-07-06T07:07:49.389Z,1013.01
2018-07-06T07:08:14.961Z,1013.05
2018-07-06T07:08:40.312Z,1013.08
2018-07-06T07:09:05.860Z,1013.08
2018-07-06T07:09:31.587Z,1013.04
2018-07-06T07:09:57.581Z,1013.07
2018-07-06T07:10:22.955Z,1013.08
2018-07-06T07:10:48.481Z,1013.06
2018-07-06T07:11:13.995Z,1013.1
2018-07-06T07:11:39.675Z,1013.11
2018-07-06T07:12:05.172Z,1013.1
2018-07-06T07:12:30.680Z,1013.12
2018-07-06T07:12:56.183Z,1013.16
2018-07-06T07:13:21.740Z,1013.11
2018-07-06T07:13:47.443Z,1013.17
2018-07-06T07:14:13.185Z,1013.13
2018-07-06T07:14:38.574Z,1013.13
2018-07-06T07:15:04.031Z,1013.13
2018-07-06T07:15:29.509Z,1013.17
2018-07-06T07:15:54.990Z,1013.16
2018-07-06T07:16:20.446Z,1013.15
2018-07-06T07:16:46.358Z,1013.16
2018-07-06T07:17:11.871Z,1013.19
2018-07-06T07:17:37.348Z,1013.17
2018-07-06T07:18:02.851Z,1013.21
2018-07-06T07:18:28.360Z,1013.16
2018-07-06T07:18:53.872Z,1013.18
2018-07-06T07:19:19.377Z,1013.2
2018-07-06T07:19:44.891Z,1013.2
2018-07-06T07:20:10.368Z,1013.2
2018-07-06T07:20:35.872Z,1013.22
2018-07-06T07:21:01.339Z,1013.22
2018-07-06T07:21:26.846Z,1013.24
2018-07-06T07:21:52.363Z,1013.23
2018-07-06T07:22:17.866Z,1013.24
2018-07-06T07:22:43.412Z,1013.24
2018-07-06T07:23:08.870Z,1013.27
2018-07-06T07:23:34.390Z,1013.29
2018-07-06T07:23:59.820Z,1013.31
2018-07-06T07:24:25.312Z,1013.31
2018-07-06T07:24:50.820Z,1013.27
2018-07-06T07:25:16.281Z,1013.29
2018-07-06T07:25:41.783Z,1013.29
2018-07-06T07:26:07.299Z,1013.26
2018-07-06T07:26:32.798Z,1013.32
2018-07-06T07:26:58.265Z,1013.28
2018-07-06T07:27:23.750Z,1013.32
2018-07-06T07:27:49.207Z,1013.3
2018-07-06T07:28:14.668Z,1013.28
2018-07-06T07:28:40.143Z,1013.36
2018-07-06T07:29:05.615Z,1013.29
2018-07-06T07:29:31.117Z,1013.3
2018-07-06T07:29:56.735Z,1013.31
2018-07-06T07:30:22.232Z,1013.31
2018-07-06T07:30:47.723Z,1013.33
2018-07-06T07:31:13.135Z,1013.28
2018-07-06T07:31:38.670Z,1013.3
2018-07-06T07:32:04.186Z,1013.31
2018-07-06T07:32:29.683Z,1013.32
2018-07-06T07:32:55.316Z,1013.28
2018-07-06T07:33:20.800Z,1013.27
2018-07-06T07:33:46.353Z,1013.26
2018-07-06T07:34:11.852Z,1013.3
2018-07-06T07:34:37.385Z,1013.36
2018-07-06T07:35:02.884Z,1013.33
2018-07-06T07:35:28.397Z,1013.37
2018-07-06T07:35:53.919Z,1013.31
2018-07-06T07:36:19.445Z,1013.27
2018-07-06T07:36:44.944Z,1013.29
2018-07-06T07:37:10.434Z,1013.31
2018-07-06T07:37:35.949Z,1013.27
2018-07-06T07:38:01.502Z,1013.27
2018-07-06T07:38:27.001Z,1013.26
2018-07-06T07:38:52.499Z,1013.29
2018-07-06T07:39:18.082Z,1013.27
2018-07-06T07:39:43.698Z,1013.29
2018-07-06T07:40:09.209Z,1013.29
2018-07-06T07:40:34.694Z,1013.3
2018-07-06T07:41:00.173Z,1013.3
2018-07-06T07:41:25.659Z,1013.31
2018-07-06T07:41:51.224Z,1013.27
2018-07-06T07:42:16.683Z,1013.27
2018-07-06T07:42:42.179Z,1013.3
2018-07-06T07:43:07.666Z,1013.31
2018-07-06T07:43:33.119Z,1013.29
2018-07-06T07:43:58.592Z,1013.28
2018-07-06T07:44:24.054Z,1013.27
2018-07-06T07:44:49.553Z,1013.3
2018-07-06T07:45:15.068Z,1013.33
2018-07-06T07:45:40.539Z,1013.25
2018-07-06T07:46:06.029Z,1013.31
2018-07-06T07:46:31.569Z,1013.28
2018-07-06T07:46:57.016Z,1013.33
2018-07-06T07:47:22.501Z,1013.31
2018-07-06T07:47:48.346Z,1013.29
2018-07-06T07:48:13.663Z,1013.32
2018-07-06T07:48:39.124Z,1013.32
2018-07-06T07:49:04.665Z,1013.31
2018-07-06T07:49:30.164Z,1013.3
2018-07-06T07:49:55.599Z,1013.26
2018-07-06T07:50:21.200Z,1013.28
2018-07-06T07:50:46.689Z,1013.25
2018-07-06T07:51:12.168Z,1013.29
2018-07-06T07:51:37.624Z,1013.3
2018-07-06T07:52:03.093Z,1013.3
2018-07-06T07:52:28.564Z,1013.29
2018-07-06T07:52:54.047Z,1013.31
2018-07-06T07:53:19.485Z,1013.3
2018-07-06T07:53:44.956Z,1013.31
2018-07-06T07:54:10.623Z,1013.27
2018-07-06T07:54:36.150Z,1013.31
2018-07-06T07:55:01.598Z,1013.34
2018-07-06T07:55:27.053Z,1013.28
2018-07-06T07:55:52.491Z,1013.33
2018-07-06T07:56:17.966Z,1013.33
2018-07-06T07:56:43.419Z,1013.3
2018-07-06T07:57:08.949Z,1013.35
2018-07-06T07:57:34.416Z,1013.35
2018-07-06T07:57:59.874Z,1013.33
2018-07-06T07:58:25.331Z,1013.35
2018-07-06T07:58:50.808Z,1013.37
2018-07-06T07:59:16.280Z,1013.38
2018-07-06T07:59:41.735Z,1013.34
2018-07-06T08:00:07.195Z,1013.31
2018-07-06T08:00:32.847Z,1013.3
2018-07-06T08:00:58.322Z,1013.38
2018-07-06T08:01:23.799Z,1013.31
2018-07-06T08:01:49.070Z,1013.33
2018-07-06T08:02:14.543Z,1013.31
2018-07-06T08:02:40.010Z,1013.32
2018-07-06T08:03:05.487Z,1013.3
2018-07-06T08:03:30.957Z,1013.36
2018-07-06T08:03:56.503Z,1013.34
2018-07-06T08:04:21.951Z,1013.31
2018-07-06T08:04:47.425Z,1013.28
2018-07-06T08:05:12.894Z,1013.3
2018-07-06T08:05:38.354Z,1013.26
2018-07-06T08:06:03.817Z,1013.29
2018-07-06T08:06:29.290Z,1013.32
2018-07-06T08:06:54.749Z,1013.32
2018-07-06T08:07:20.242Z,1013.31
2018-07-06T08:07:45.717Z,1013.31
2018-07-06T08:08:11.254Z,1013.29
2018-07-06T08:08:36.744Z,1013.31
2018-07-06T08:09:02.217Z,1013.3
2018-07-06T08:09:27.717Z,1013.35
2018-07-06T08:10:46.635Z,1013.28
2018-07-06T08:11:12.144Z,1013.32
2018-07-06T08:11:37.633Z,1013.3
2018-07-06T08:12:03.090Z,1013.32
2018-07-06T08:12:28.556Z,1013.3
2018-07-06T08:12:54.025Z,1013.32
2018-07-06T08:13:19.514Z,1013.31
2018-07-06T08:13:45.014Z,1013.32
2018-07-06T08:14:10.586Z,1013.3
2018-07-06T08:14:36.043Z,1013.32
2018-07-06T08:15:01.558Z,1013.26
2018-07-06T08:15:27.075Z,1013.28
2018-07-06T08:15:52.583Z,1013.3
2018-07-06T08:16:18.069Z,1013.31
2018-07-06T08:16:43.568Z,1013.34
2018-07-06T08:17:09.044Z,1013.31
2018-07-06T08:17:34.568Z,1013.31
2018-07-06T08:18:00.084Z,1013.3
2018-07-06T08:18:25.572Z,1013.32
2018-07-06T08:18:51.080Z,1013.32
2018-07-06T08:19:16.587Z,1013.32
2018-07-06T08:19:42.122Z,1013.3
2018-07-06T08:20:50.812Z,1013.3
2018-07-06T08:21:16.334Z,1013.35
2018-07-06T08:21:41.832Z,1013.33
2018-07-06T08:22:07.297Z,1013.3
2018-07-06T08:22:32.801Z,1013.28
2018-07-06T08:22:58.927Z,1013.3
2018-07-06T08:23:24.651Z,1013.27
2018-07-06T08:23:50.171Z,1013.28
2018-07-06T08:24:15.641Z,1013.29
2018-07-06T08:24:41.097Z,1013.31
2018-07-06T08:25:06.641Z,1013.28
2018-07-06T08:25:32.219Z,1013.29
2018-07-06T08:25:57.630Z,1013.28
2018-07-06T08:26:23.123Z,1013.26
2018-07-06T08:26:48.595Z,1013.28
2018-07-06T08:27:14.088Z,1013.3
2018-07-06T08:27:39.583Z,1013.29
2018-07-06T08:28:05.097Z,1013.33
2018-07-06T08:28:30.579Z,1013.32
2018-07-06T08:28:56.055Z,1013.31
2018-07-06T08:29:21.522Z,1013.29
2018-07-06T08:29:47.025Z,1013.28
2018-07-06T08:30:12.502Z,1013.32
2018-07-06T08:30:37.981Z,1013.31
2018-07-06T08:31:03.499Z,1013.34
2018-07-06T08:31:29.079Z,1013.34
2018-07-06T08:31:54.504Z,1013.35
2018-07-06T08:32:19.988Z,1013.35
2018-07-06T08:32:45.509Z,1013.35
2018-07-06T08:33:11.019Z,1013.35
2018-07-06T08:33:36.518Z,1013.34
2018-07-06T08:34:02.019Z,1013.37
2018-07-06T08:34:27.532Z,1013.34
2018-07-06T08:34:53.008Z,1013.33
2018-07-06T08:35:18.484Z,1013.4
2018-07-06T08:35:43.993Z,1013.43
2018-07-06T08:36:09.502Z,1013.4
2018-07-06T08:36:34.995Z,1013.4
2018-07-06T08:37:00.508Z,1013.36
2018-07-06T08:37:25.985Z,1013.35
2018-07-06T08:37:51.489Z,1013.37
2018-07-06T08:38:17.012Z,1013.33
2018-07-06T08:38:42.487Z,1013.35
2018-07-06T08:39:07.977Z,1013.39
2018-07-06T08:39:33.512Z,1013.37
2018-07-06T08:39:59.175Z,1013.34
2018-07-06T08:40:24.535Z,1013.36
2018-07-06T08:40:50.005Z,1013.36
2018-07-06T08:41:15.477Z,1013.33
2018-07-06T08:41:40.970Z,1013.35
2018-07-06T08:42:06.512Z,1013.33
2018-07-06T08:42:32.010Z,1013.32
2018-07-06T08:42:57.501Z,1013.33
2018-07-06T08:43:23.029Z,1013.32
2018-07-06T08:43:48.496Z,1013.32
2018-07-06T08:44:14.025Z,1013.32
2018-07-06T08:44:39.532Z,1013.3
2018-07-06T08:45:05.013Z,1013.36
2018-07-06T08:45:30.569Z,1013.32
2018-07-06T08:45:56.124Z,1013.28
2018-07-06T08:46:21.600Z,1013.32
2018-07-06T08:46:47.124Z,1013.33
2018-07-06T08:47:12.610Z,1013.37
2018-07-06T08:47:38.067Z,1013.33
2018-07-06T08:48:03.556Z,1013.4
2018-07-06T08:48:28.993Z,1013.33
2018-07-06T08:48:54.455Z,1013.36
2018-07-06T08:49:19.959Z,1013.3
2018-07-06T08:49:45.446Z,1013.33
2018-07-06T08:50:10.917Z,1013.28
2018-07-06T08:50:36.397Z,1013.33
2018-07-06T08:51:01.950Z,1013.31
2018-07-06T08:51:27.397Z,1013.33
2018-07-06T08:51:52.902Z,1013.36
2018-07-06T08:52:18.360Z,1013.31
2018-07-06T08:52:43.831Z,1013.35
2018-07-06T08:53:09.318Z,1013.33
2018-07-06T08:53:34.888Z,1013.37
2018-07-06T08:54:00.729Z,1013.35
2018-07-06T08:54:26.198Z,1013.39
2018-07-06T08:54:51.696Z,1013.36
2018-07-06T08:55:17.212Z,1013.35
2018-07-06T08:55:42.736Z,1013.31
2018-07-06T08:56:08.224Z,1013.36
2018-07-06T08:56:33.727Z,1013.35
2018-07-06T08:56:59.205Z,1013.38
2018-07-06T08:57:24.691Z,1013.32
2018-07-06T08:57:50.230Z,1013.36
2018-07-06T08:58:15.682Z,1013.39
2018-07-06T08:58:41.364Z,1013.39
2018-07-06T08:59:06.812Z,1013.37
2018-07-06T08:59:32.313Z,1013.37
2018-07-06T08:59:57.796Z,1013.39
2018-07-06T09:00:23.282Z,1013.41
2018-07-06T09:00:48.790Z,1013.38
2018-07-06T09:01:14.285Z,1013.42
2018-07-06T09:01:39.795Z,1013.41
2018-07-06T09:02:05.312Z,1013.38
2018-07-06T09:02:30.825Z,1013.38
2018-07-06T09:02:56.290Z,1013.39
2018-07-06T09:03:21.793Z,1013.35
2018-07-06T09:03:47.273Z,1013.37
2018-07-06T09:04:12.861Z,1013.38
2018-07-06T09:04:38.331Z,1013.41
2018-07-06T09:05:03.780Z,1013.41
2018-07-06T09:05:29.266Z,1013.41
2018-07-06T09:05:54.782Z,1013.36
2018-07-06T09:06:20.304Z,1013.34
2018-07-06T09:06:45.814Z,1013.34
2018-07-06T09:07:11.326Z,1013.4
2018-07-06T09:07:36.886Z,1013.38
2018-07-06T09:08:02.273Z,1013.33
2018-07-06T09:08:27.769Z,1013.38
2018-07-06T09:08:53.279Z,1013.37
2018-07-06T09:09:18.767Z,1013.41
2018-07-06T09:09:44.246Z,1013.37
2018-07-06T09:10:09.857Z,1013.4
2018-07-06T09:10:35.338Z,1013.42
2018-07-06T09:11:00.864Z,1013.33
2018-07-06T09:11:26.350Z,1013.39
2018-07-06T09:11:51.861Z,1013.4
2018-07-06T09:12:17.354Z,1013.44
2018-07-06T09:12:42.813Z,1013.46
2018-07-06T09:13:08.369Z,1013.47
2018-07-06T09:13:33.828Z,1013.44
2018-07-06T09:13:59.418Z,1013.42
2018-07-06T09:14:24.927Z,1013.41
2018-07-06T09:14:50.397Z,1013.46
2018-07-06T09:15:15.891Z,1013.43
2018-07-06T09:15:41.361Z,1013.44
2018-07-06T09:16:06.806Z,1013.45
2018-07-06T09:16:32.266Z,1013.43
2018-07-06T09:16:57.734Z,1013.44
2018-07-06T09:17:23.216Z,1013.45
2018-07-06T09:17:48.712Z,1013.44
2018-07-06T09:18:14.198Z,1013.47
2018-07-06T09:18:39.671Z,1013.42
2018-07-06T09:19:05.149Z,1013.42
2018-07-06T09:19:30.729Z,1013.49
2018-07-06T09:19:56.203Z,1013.52
2018-07-06T09:20:21.513Z,1013.58
2018-07-06T09:20:47.021Z,1013.53
2018-07-06T09:21:12.449Z,1013.53
2018-07-06T09:21:37.924Z,1013.49
2018-07-06T09:22:35.978Z,1013.52
2018-07-06T09:23:01.497Z,1013.55
2018-07-06T09:23:26.985Z,1013.53
2018-07-06T09:23:52.462Z,1013.56
2018-07-06T09:24:18.005Z,1013.56
2018-07-06T09:24:43.437Z,1013.53
2018-07-06T09:25:08.887Z,1013.54
2018-07-06T09:25:34.427Z,1013.54
2018-07-06T09:26:00.229Z,1013.49
2018-07-06T09:26:25.331Z,1013.51
2018-07-06T09:26:50.758Z,1013.54